createdAt,value
2018-07-09T00:00:17.447Z,26.68
2018-07-09T00:01:17.405Z,26.68
2018-07-09T00:02:17.367Z,26.61
2018-07-09T00:03:17.322Z,26.67
2018-07-09T00:04:17.289Z,26.65
2018-07-09T00:05:17.247Z,26.69
2018-07-09T00:06:17.235Z,26.64
2018-07-09T00:07:17.161Z,26.65
2018-07-09T00:08:17.112Z,26.69
2018-07-09T00:09:17.088Z,26.65
2018-07-09T00:10:17.049Z,26.69
2018-07-09T00:11:17.015Z,26.73
2018-07-09T00:12:16.962Z,26.65
2018-07-09T00:13:16.920Z,26.68
2018-07-09T00:14:16.887Z,26.69
2018-07-09T00:15:16.840Z,26.67
2018-07-09T00:16:16.798Z,26.65
2018-07-09T00:17:16.760Z,26.65
2018-07-09T00:18:16.718Z,26.72
2018-07-09T00:19:16.682Z,26.72
2018-07-09T00:20:16.638Z,26.65
2018-07-09T00:21:16.596Z,26.69
2018-07-09T00:22:16.554Z,26.73
2018-07-09T00:23:16.515Z,26.67
2018-07-09T00:24:16.476Z,26.67
2018-07-09T00:25:16.438Z,26.73
2018-07-09T00:26:16.396Z,26.65
2018-07-09T00:27:16.365Z,26.74
2018-07-09T00:28:16.316Z,26.69
2018-07-09T00:29:16.286Z,26.69
2018-07-09T00:30:16.230Z,26.64
2018-07-09T00:31:16.196Z,26.69
2018-07-09T00:32:16.167Z,26.72
2018-07-09T00:33:16.112Z,26.67
2018-07-09T00:34:16.073Z,26.67
2018-07-09T00:35:16.032Z,26.67
2018-07-09T00:36:15.990Z,26.69
2018-07-09T00:37:15.955Z,26.69
2018-07-09T00:38:15.911Z,26.68
2018-07-09T00:39:15.873Z,26.68
2018-07-09T00:40:15.834Z,26.67
2018-07-09T00:41:15.790Z,26.65
2018-07-09T00:42:15.748Z,26.68
2018-07-09T00:43:15.725Z,26.65
2018-07-09T00:44:15.668Z,26.67
2018-07-09T00:45:15.621Z,26.73
2018-07-09T00:46:15.589Z,26.69
2018-07-09T00:47:15.544Z,26.68
2018-07-09T00:48:15.509Z,26.69
2018-07-09T00:49:15.472Z,26.69
2018-07-09T00:50:15.427Z,26.74
2018-07-09T00:51:15.386Z,26.67
2018-07-09T00:52:15.344Z,26.69
2018-07-09T00:53:15.307Z,26.68
2018-07-09T00:54:15.270Z,26.58
2018-07-09T00:55:15.227Z,26.59
2018-07-09T00:56:15.189Z,26.59
2018-07-09T00:57:15.147Z,26.72
2018-07-09T00:58:15.105Z,26.72
2018-07-09T00:59:15.063Z,26.76
2018-07-09T01:00:15.025Z,26.59
2018-07-09T01:01:14.980Z,26.77
2018-07-09T01:02:14.944Z,26.59
2018-07-09T01:03:14.911Z,26.65
2018-07-09T01:04:14.860Z,26.69
2018-07-09T01:05:14.818Z,26.69
2018-07-09T01:06:14.787Z,26.67
2018-07-09T01:07:14.745Z,26.61
2018-07-09T01:08:14.706Z,26.68
2018-07-09T01:09:14.661Z,26.69
2018-07-09T01:10:14.620Z,26.69
2018-07-09T01:11:14.603Z,26.69
2018-07-09T01:12:14.540Z,26.74
2018-07-09T01:13:14.511Z,26.69
2018-07-09T01:14:14.459Z,26.64
2018-07-09T01:15:14.421Z,26.68
2018-07-09T01:16:14.382Z,26.67
2018-07-09T01:17:14.338Z,26.69
2018-07-09T01:18:14.296Z,26.74
2018-07-09T01:19:14.257Z,26.72
2018-07-09T01:20:14.226Z,26.65
2018-07-09T01:21:14.176Z,26.68
2018-07-09T01:22:14.129Z,26.68
2018-07-09T01:23:14.099Z,26.62
2018-07-09T01:24:14.054Z,26.58
2018-07-09T01:25:14.007Z,26.68
2018-07-09T01:26:13.979Z,26.73
2018-07-09T01:27:13.933Z,26.68
2018-07-09T01:28:13.905Z,26.69
2018-07-09T01:29:13.853Z,26.67
2018-07-09T01:30:13.811Z,26.65
2018-07-09T01:31:13.773Z,26.67
2018-07-09T01:32:13.731Z,26.67
2018-07-09T01:33:13.690Z,26.68
2018-07-09T01:34:13.652Z,26.69
2018-07-09T01:35:13.610Z,26.64
2018-07-09T01:36:13.572Z,26.68
2018-07-09T01:37:13.536Z,26.65
2018-07-09T01:38:13.490Z,26.59
2018-07-09T01:39:13.457Z,26.64
2018-07-09T01:40:13.410Z,26.54
2018-07-09T01:41:13.368Z,26.67
2018-07-09T01:42:13.327Z,26.61
2018-07-09T01:43:13.295Z,26.61
2018-07-09T01:44:13.247Z,26.68
2018-07-09T01:45:13.215Z,26.67
2018-07-09T01:46:13.174Z,26.67
2018-07-09T01:47:13.127Z,26.72
2018-07-09T01:48:13.076Z,26.62
2018-07-09T01:49:13.047Z,26.65
2018-07-09T01:50:13.006Z,26.73
2018-07-09T01:51:12.964Z,26.68
2018-07-09T01:52:12.927Z,26.67
2018-07-09T01:53:12.879Z,26.72
2018-07-09T01:54:12.843Z,26.68
2018-07-09T01:55:12.805Z,26.72
2018-07-09T01:56:12.770Z,26.64
2018-07-09T01:57:12.725Z,26.72
2018-07-09T01:58:12.683Z,26.69
2018-07-09T01:59:12.641Z,26.64
2018-07-09T02:00:12.603Z,26.69
2018-07-09T02:01:12.562Z,26.67
2018-07-09T02:02:12.523Z,26.68
2018-07-09T02:03:12.480Z,26.64
2018-07-09T02:04:12.442Z,26.65
2018-07-09T02:05:12.400Z,26.58
2018-07-09T02:06:12.362Z,26.72
2018-07-09T02:07:12.321Z,26.67
2018-07-09T02:08:12.275Z,26.69
2018-07-09T02:09:12.240Z,26.68
2018-07-09T02:10:12.195Z,26.58
2018-07-09T02:11:12.165Z,26.72
2018-07-09T02:12:12.118Z,26.68
2018-07-09T02:13:12.076Z,26.64
2018-07-09T02:14:12.037Z,26.68
2018-07-09T02:15:12.000Z,26.67
2018-07-09T02:16:11.947Z,26.69
2018-07-09T02:17:11.915Z,26.67
2018-07-09T02:18:11.897Z,26.65
2018-07-09T02:19:11.835Z,26.67
2018-07-09T02:20:11.797Z,26.69
2018-07-09T02:21:11.752Z,26.67
2018-07-09T02:22:11.719Z,26.58
2018-07-09T02:23:11.678Z,26.69
2018-07-09T02:24:11.632Z,26.72
2018-07-09T02:25:11.591Z,26.67
2018-07-09T02:26:11.552Z,26.73
2018-07-09T02:27:11.518Z,26.55
2018-07-09T02:28:11.473Z,26.65
2018-07-09T02:29:11.431Z,26.68
2018-07-09T02:30:11.396Z,26.68
2018-07-09T02:31:11.361Z,26.67
2018-07-09T02:32:11.308Z,26.69
2018-07-09T02:33:11.268Z,26.65
2018-07-09T02:34:11.230Z,26.68
2018-07-09T02:35:11.192Z,26.65
2018-07-09T02:36:11.146Z,26.67
2018-07-09T02:37:11.113Z,26.64
2018-07-09T02:38:11.071Z,26.67
2018-07-09T02:39:11.033Z,26.72
2018-07-09T02:40:10.988Z,26.65
2018-07-09T02:41:10.947Z,26.67
2018-07-09T02:42:10.903Z,26.68
2018-07-09T02:43:10.867Z,26.65
2018-07-09T02:44:10.822Z,26.65
2018-07-09T02:45:10.784Z,26.68
2018-07-09T02:46:10.745Z,26.69
2018-07-09T02:47:10.709Z,26.65
2018-07-09T02:48:10.668Z,26.67
2018-07-09T02:49:10.640Z,26.68
2018-07-09T02:50:10.584Z,26.73
2018-07-09T02:51:10.542Z,26.73
2018-07-09T02:52:10.502Z,26.61
2018-07-09T02:53:10.460Z,26.68
2018-07-09T02:54:10.426Z,26.67
2018-07-09T02:55:10.388Z,26.69
2018-07-09T02:56:10.342Z,26.72
2018-07-09T02:57:10.306Z,26.67
2018-07-09T02:58:10.261Z,26.69
2018-07-09T02:59:10.223Z,26.67
2018-07-09T03:00:10.183Z,26.69
2018-07-09T03:01:10.344Z,26.62
2018-07-09T03:02:10.103Z,26.65
2018-07-09T03:03:10.058Z,26.65
2018-07-09T03:04:10.020Z,26.65
2018-07-09T03:05:09.971Z,26.65
2018-07-09T03:06:09.940Z,26.69
2018-07-09T03:07:09.900Z,26.65
2018-07-09T03:08:09.862Z,26.67
2018-07-09T03:09:09.819Z,26.62
2018-07-09T03:10:09.776Z,26.62
2018-07-09T03:11:09.735Z,26.67
2018-07-09T03:12:09.719Z,26.68
2018-07-09T03:13:09.649Z,26.67
2018-07-09T03:14:09.620Z,26.68
2018-07-09T03:15:09.585Z,26.65
2018-07-09T03:16:09.533Z,26.67
2018-07-09T03:17:09.497Z,26.59
2018-07-09T03:18:09.463Z,26.68
2018-07-09T03:19:09.488Z,26.65
2018-07-09T03:20:09.379Z,26.68
2018-07-09T03:21:09.341Z,26.68
2018-07-09T03:22:09.287Z,26.65
2018-07-09T03:23:09.254Z,26.68
2018-07-09T03:24:09.202Z,26.72
2018-07-09T03:25:09.198Z,26.69
2018-07-09T03:26:09.147Z,26.61
2018-07-09T03:27:09.108Z,26.65
2018-07-09T03:28:09.057Z,26.68
2018-07-09T03:29:09.020Z,26.65
2018-07-09T03:30:08.972Z,26.61
2018-07-09T03:31:08.927Z,26.64
2018-07-09T03:32:08.904Z,26.62
2018-07-09T03:33:08.847Z,26.64
2018-07-09T03:34:08.818Z,26.65
2018-07-09T03:35:08.761Z,26.65
2018-07-09T03:36:08.733Z,26.64
2018-07-09T03:37:08.681Z,26.64
2018-07-09T03:38:08.652Z,26.67
2018-07-09T03:39:08.601Z,26.55
2018-07-09T03:40:08.578Z,26.61
2018-07-09T03:41:08.534Z,26.65
2018-07-09T03:42:08.497Z,26.64
2018-07-09T03:43:08.467Z,26.59
2018-07-09T03:44:08.411Z,26.65
2018-07-09T03:45:08.365Z,26.72
2018-07-09T03:46:08.325Z,26.67
2018-07-09T03:47:08.283Z,26.54
2018-07-09T03:48:08.251Z,26.67
2018-07-09T03:49:08.200Z,26.67
2018-07-09T03:50:08.165Z,26.68
2018-07-09T03:51:08.121Z,26.64
2018-07-09T03:52:08.079Z,26.73
2018-07-09T03:53:08.048Z,26.65
2018-07-09T03:54:08.000Z,26.65
2018-07-09T03:55:07.963Z,26.72
2018-07-09T03:56:07.919Z,26.65
2018-07-09T03:57:07.881Z,26.68
2018-07-09T03:58:07.845Z,26.65
2018-07-09T03:59:07.797Z,26.67
2018-07-09T04:00:07.759Z,26.54
2018-07-09T04:01:07.722Z,26.69
2018-07-09T04:02:07.711Z,26.64
2018-07-09T04:03:07.632Z,26.65
2018-07-09T04:04:07.601Z,26.68
2018-07-09T04:05:07.562Z,26.68
2018-07-09T04:06:07.517Z,26.64
2018-07-09T04:07:07.476Z,26.68
2018-07-09T04:08:07.431Z,26.65
2018-07-09T04:09:07.395Z,26.72
2018-07-09T04:10:07.344Z,26.61
2018-07-09T04:11:07.319Z,26.65
2018-07-09T04:12:07.274Z,26.64
2018-07-09T04:13:07.239Z,26.72
2018-07-09T04:14:07.194Z,26.67
2018-07-09T04:15:07.152Z,26.64
2018-07-09T04:16:07.108Z,26.67
2018-07-09T04:17:07.071Z,26.69
2018-07-09T04:18:07.033Z,26.72
2018-07-09T04:19:06.991Z,26.64
2018-07-09T04:20:06.953Z,26.68
2018-07-09T04:21:06.910Z,26.69
2018-07-09T04:22:06.878Z,26.69
2018-07-09T04:23:06.831Z,26.67
2018-07-09T04:24:06.789Z,26.62
2018-07-09T04:25:06.750Z,26.72
2018-07-09T04:26:06.719Z,26.74
2018-07-09T04:27:06.670Z,26.65
2018-07-09T04:28:06.629Z,26.72
2018-07-09T04:29:06.584Z,26.67
2018-07-09T04:30:06.552Z,26.62
2018-07-09T04:31:06.510Z,26.67
2018-07-09T04:32:06.463Z,26.69
2018-07-09T04:33:06.431Z,26.58
2018-07-09T04:34:06.406Z,26.67
2018-07-09T04:35:06.344Z,26.62
2018-07-09T04:36:06.297Z,26.68
2018-07-09T04:37:06.262Z,26.64
2018-07-09T04:38:06.226Z,26.61
2018-07-09T04:39:06.182Z,26.68
2018-07-09T04:40:06.144Z,26.62
2018-07-09T04:41:06.104Z,26.61
2018-07-09T04:42:06.064Z,26.58
2018-07-09T04:43:06.023Z,26.55
2018-07-09T04:44:05.987Z,26.64
2018-07-09T04:45:05.939Z,26.59
2018-07-09T04:46:05.903Z,26.59
2018-07-09T04:47:05.872Z,26.58
2018-07-09T04:48:05.820Z,26.59
2018-07-09T04:49:05.797Z,26.61
2018-07-09T04:50:05.747Z,26.58
2018-07-09T04:51:05.712Z,26.58
2018-07-09T04:52:05.661Z,26.52
2018-07-09T04:53:05.619Z,26.57
2018-07-09T04:54:05.581Z,26.54
2018-07-09T04:55:05.539Z,26.47
2018-07-09T04:56:05.500Z,26.52
2018-07-09T04:57:05.459Z,26.50
2018-07-09T04:58:05.417Z,26.49
2018-07-09T04:59:05.376Z,26.49
2018-07-09T05:00:05.337Z,26.57
2018-07-09T05:01:05.311Z,26.59
2018-07-09T05:02:02.689Z,26.61
2018-07-09T05:03:02.619Z,26.57
2018-07-09T05:04:55.565Z,26.35
2018-07-09T05:05:55.521Z,26.31
2018-07-09T05:06:55.470Z,26.11
2018-07-09T05:07:55.441Z,25.91
2018-07-09T05:08:55.400Z,25.83
2018-07-09T05:09:55.361Z,25.67
2018-07-09T05:10:55.319Z,25.56
2018-07-09T05:11:55.278Z,25.54
2018-07-09T05:12:55.291Z,25.50
2018-07-09T05:13:55.198Z,25.32
2018-07-09T05:14:55.153Z,25.20
2018-07-09T05:15:55.126Z,25.19
2018-07-09T05:16:55.077Z,25.06
2018-07-09T05:17:55.037Z,25.02
2018-07-09T05:18:54.992Z,24.87
2018-07-09T05:19:54.954Z,24.95
2018-07-09T05:20:54.920Z,24.79
2018-07-09T05:21:54.876Z,24.76
2018-07-09T05:22:54.834Z,24.76
2018-07-09T05:23:54.792Z,24.75
2018-07-09T05:24:54.754Z,24.85
2018-07-09T05:25:54.718Z,24.76
2018-07-09T05:26:54.667Z,24.92
2018-07-09T05:27:54.631Z,24.90
2018-07-09T05:28:54.578Z,24.95
2018-07-09T05:29:54.552Z,25.06
2018-07-09T05:30:54.504Z,25.15
2018-07-09T05:31:54.463Z,25.16
2018-07-09T05:32:54.424Z,25.22
2018-07-09T05:33:54.377Z,25.16
2018-07-09T05:34:54.348Z,25.28
2018-07-09T05:35:54.304Z,25.37
2018-07-09T05:36:54.262Z,25.31
2018-07-09T05:37:54.222Z,25.37
2018-07-09T05:38:54.179Z,25.39
2018-07-09T05:39:54.149Z,25.44
2018-07-09T05:40:54.097Z,25.56
2018-07-09T05:41:54.062Z,25.56
2018-07-09T05:42:54.014Z,25.56
2018-07-09T05:43:53.982Z,25.57
2018-07-09T05:44:53.937Z,25.59
2018-07-09T05:45:53.897Z,25.64
2018-07-09T05:46:53.885Z,25.68
2018-07-09T05:47:53.811Z,25.71
2018-07-09T05:48:53.769Z,25.59
2018-07-09T05:49:53.729Z,25.74
2018-07-09T05:50:53.688Z,25.67
2018-07-09T05:51:53.645Z,25.72
2018-07-09T05:52:53.645Z,25.71
2018-07-09T05:53:53.568Z,25.77
2018-07-09T05:54:53.529Z,25.84
2018-07-09T05:55:53.484Z,25.83
2018-07-09T05:56:53.443Z,25.82
2018-07-09T05:57:53.404Z,25.83
2018-07-09T05:58:53.395Z,25.86
2018-07-09T05:59:53.325Z,25.83
2018-07-09T06:00:53.281Z,25.83
2018-07-09T06:01:53.243Z,25.89
2018-07-09T06:02:53.198Z,25.91
2018-07-09T06:03:53.150Z,25.93
2018-07-09T06:04:53.118Z,25.90
2018-07-09T06:05:53.076Z,25.98
2018-07-09T06:06:53.041Z,25.94
2018-07-09T06:07:52.999Z,25.93
2018-07-09T06:08:52.951Z,25.97
2018-07-09T06:09:52.913Z,25.94
2018-07-09T06:10:52.871Z,25.98
2018-07-09T06:11:52.833Z,25.94
2018-07-09T06:12:52.791Z,26.05
2018-07-09T06:13:52.753Z,26.01
2018-07-09T06:14:52.710Z,26.02
2018-07-09T06:15:52.669Z,26.01
2018-07-09T06:16:52.625Z,26.05
2018-07-09T06:17:52.586Z,26.04
2018-07-09T06:18:52.544Z,26.04
2018-07-09T06:19:52.511Z,26.08
2018-07-09T06:20:52.463Z,26.04
2018-07-09T06:21:52.424Z,26.06
2018-07-09T06:22:52.382Z,26.01
2018-07-09T06:23:52.344Z,26.05
2018-07-09T06:24:52.313Z,26.11
2018-07-09T06:25:52.264Z,26.18
2018-07-09T06:26:52.226Z,26.02
2018-07-09T06:27:52.181Z,26.18
2018-07-09T06:28:52.136Z,26.12
2018-07-09T06:29:52.098Z,26.08
2018-07-09T06:30:52.047Z,26.06
2018-07-09T06:31:52.024Z,26.17
2018-07-09T06:32:51.976Z,26.18
2018-07-09T06:34:51.894Z,26.15
2018-07-09T06:35:51.853Z,26.05
2018-07-09T06:36:51.814Z,26.12
2018-07-09T06:37:51.778Z,26.12
2018-07-09T06:38:51.732Z,26.12
2018-07-09T06:39:51.690Z,26.15
2018-07-09T06:40:51.655Z,26.20
2018-07-09T06:41:51.613Z,26.12
2018-07-09T06:42:51.570Z,26.11
2018-07-09T06:43:51.529Z,26.17
2018-07-09T06:44:51.509Z,26.18
2018-07-09T06:45:51.449Z,26.24
2018-07-09T06:46:51.411Z,26.28
2018-07-09T06:47:51.378Z,26.17
2018-07-09T06:48:51.322Z,26.21
2018-07-09T06:49:51.283Z,26.17
2018-07-09T06:50:51.245Z,26.28
2018-07-09T06:51:51.208Z,26.22
2018-07-09T06:52:51.165Z,26.11
2018-07-09T06:53:51.139Z,26.20
2018-07-09T06:54:51.081Z,26.21
2018-07-09T06:55:51.044Z,26.12
2018-07-09T06:56:50.998Z,26.18
2018-07-09T06:57:50.966Z,26.27
2018-07-09T06:58:50.910Z,26.12
2018-07-09T06:59:50.891Z,26.12
2018-07-09T07:00:50.838Z,26.27
2018-07-09T07:01:50.801Z,26.17
2018-07-09T07:02:50.760Z,26.17
2018-07-09T07:03:50.715Z,26.22
2018-07-09T07:04:50.680Z,26.24
2018-07-09T07:05:50.635Z,26.12
2018-07-09T07:06:50.606Z,26.17
2018-07-09T07:07:50.554Z,26.24
2018-07-09T07:08:50.580Z,26.20
2018-07-09T07:09:50.475Z,26.15
2018-07-09T07:10:50.430Z,26.17
2018-07-09T07:11:50.394Z,26.27
2018-07-09T07:12:50.350Z,26.22
2018-07-09T07:13:50.315Z,26.18
2018-07-09T07:14:50.273Z,26.18
2018-07-09T07:15:50.224Z,26.27
2018-07-09T07:16:50.190Z,26.24
2018-07-09T07:17:50.144Z,26.24
2018-07-09T07:18:50.108Z,26.25
2018-07-09T07:19:50.060Z,26.25
2018-07-09T07:20:50.022Z,26.22
2018-07-09T07:21:49.993Z,26.22
2018-07-09T07:22:49.948Z,26.25
2018-07-09T07:23:49.914Z,26.22
2018-07-09T07:24:49.859Z,26.22
2018-07-09T07:25:49.823Z,26.24
2018-07-09T07:26:49.785Z,26.25
2018-07-09T07:27:49.753Z,26.27
2018-07-09T07:28:49.696Z,26.27
2018-07-09T07:29:49.660Z,26.24
2018-07-09T07:30:49.620Z,26.24
2018-07-09T07:31:49.577Z,26.27
2018-07-09T07:32:49.580Z,26.25
2018-07-09T07:33:49.498Z,26.25
2018-07-09T07:34:49.468Z,26.28
2018-07-09T07:35:49.414Z,26.27
2018-07-09T07:36:49.383Z,26.28
2018-07-09T07:37:49.341Z,26.24
2018-07-09T07:38:49.313Z,26.29
2018-07-09T07:39:49.252Z,26.25
2018-07-09T07:40:49.211Z,26.28
2018-07-09T07:41:49.172Z,26.28
2018-07-09T07:42:49.133Z,26.27
2018-07-09T07:43:49.097Z,26.24
2018-07-09T07:44:49.055Z,26.28
2018-07-09T07:45:49.008Z,26.27
2018-07-09T07:46:48.966Z,26.29
2018-07-09T07:47:48.928Z,26.25
2018-07-09T07:48:48.887Z,26.27
2018-07-09T07:49:48.852Z,26.22
2018-07-09T07:50:48.814Z,26.25
2018-07-09T07:51:48.766Z,26.22
2018-07-09T07:52:48.726Z,26.25
2018-07-09T07:53:48.685Z,26.28
2018-07-09T07:54:48.634Z,26.28
2018-07-09T07:55:48.629Z,26.28
2018-07-09T07:56:48.561Z,26.24
2018-07-09T07:57:48.520Z,26.28
2018-07-09T07:58:48.484Z,26.28
2018-07-09T07:59:48.448Z,26.29
2018-07-09T08:00:48.399Z,26.27
2018-07-09T08:01:48.360Z,26.25
2018-07-09T08:02:48.359Z,26.28
2018-07-09T08:03:48.282Z,26.24
2018-07-09T08:04:48.235Z,26.28
2018-07-09T08:05:48.196Z,26.24
2018-07-09T08:06:48.155Z,26.28
2018-07-09T08:07:48.117Z,26.29
2018-07-09T08:08:48.078Z,26.31
2018-07-09T08:09:48.037Z,26.24
2018-07-09T08:10:47.992Z,26.27
2018-07-09T08:11:49.134Z,26.28
2018-07-09T08:13:27.163Z,26.28
2018-07-09T08:13:47.910Z,26.35
2018-07-09T08:14:47.875Z,26.29
2018-07-09T08:15:47.793Z,26.36
2018-07-09T08:16:47.750Z,26.35
2018-07-09T08:17:47.708Z,26.36
2018-07-09T08:18:47.672Z,26.36
2018-07-09T08:19:47.628Z,26.28
2018-07-09T08:20:47.586Z,26.35
2018-07-09T08:21:47.554Z,26.32
2018-07-09T08:22:47.514Z,26.35
2018-07-09T08:23:47.464Z,26.27
2018-07-09T08:24:47.427Z,26.31
2018-07-09T08:25:47.431Z,26.37
2018-07-09T08:26:47.342Z,26.27
2018-07-09T08:27:47.301Z,26.35
2018-07-09T08:28:47.263Z,26.36
2018-07-09T08:29:47.221Z,26.25
2018-07-09T08:30:47.209Z,26.28
2018-07-09T08:31:47.145Z,26.29
2018-07-09T08:32:47.101Z,26.32
2018-07-09T08:33:47.062Z,26.32
2018-07-09T08:34:47.030Z,26.37
2018-07-09T08:35:46.972Z,26.28
2018-07-09T08:36:46.934Z,26.39
2018-07-09T08:37:46.894Z,26.24
2018-07-09T08:38:46.855Z,26.31
2018-07-09T08:39:46.816Z,26.29
2018-07-09T08:40:46.772Z,26.32
2018-07-09T08:41:46.732Z,26.32
2018-07-09T08:42:46.697Z,26.35
2018-07-09T08:43:46.665Z,26.32
2018-07-09T08:44:46.611Z,26.28
2018-07-09T08:45:46.576Z,26.32
2018-07-09T08:46:46.528Z,26.35
2018-07-09T08:47:46.490Z,26.44
2018-07-09T08:48:46.449Z,26.43
2018-07-09T08:49:46.410Z,26.37
2018-07-09T08:50:46.359Z,26.28
2018-07-09T08:51:46.326Z,26.29
2018-07-09T08:52:46.292Z,26.39
2018-07-09T08:53:46.249Z,26.32
2018-07-09T08:54:46.204Z,26.46
2018-07-09T08:55:46.164Z,26.43
2018-07-09T08:56:46.123Z,26.39
2018-07-09T08:57:46.081Z,26.35
2018-07-09T08:58:46.045Z,26.39
2018-07-09T08:59:46.003Z,26.35
2018-07-09T09:00:45.964Z,26.35
2018-07-09T09:01:45.924Z,26.37
2018-07-09T09:02:45.879Z,26.43
2018-07-09T09:03:45.905Z,26.36
2018-07-09T09:04:45.797Z,26.40
2018-07-09T09:05:45.762Z,26.36
2018-07-09T09:06:45.719Z,26.42
2018-07-09T09:07:45.675Z,26.35
2018-07-09T09:08:45.636Z,26.43
2018-07-09T09:09:45.601Z,26.46
2018-07-09T09:10:45.553Z,26.42
2018-07-09T09:11:45.514Z,26.43
2018-07-09T09:12:45.476Z,26.40
2018-07-09T09:13:45.441Z,26.40
2018-07-09T09:14:45.396Z,26.37
2018-07-09T09:15:45.370Z,26.37
2018-07-09T09:16:45.311Z,26.43
2018-07-09T09:17:45.274Z,26.36
2018-07-09T09:18:45.228Z,26.42
2018-07-09T09:19:45.189Z,26.40
2018-07-09T09:20:45.167Z,26.35
2018-07-09T09:21:45.110Z,26.37
2018-07-09T09:22:45.069Z,26.44
2018-07-09T09:23:45.030Z,26.47
2018-07-09T09:24:44.990Z,26.31
2018-07-09T09:25:44.944Z,26.40
2018-07-09T09:26:44.905Z,26.37
2018-07-09T09:27:44.864Z,26.43
2018-07-09T09:28:44.826Z,26.44
2018-07-09T09:29:44.783Z,26.36
2018-07-09T09:30:44.745Z,26.35
2018-07-09T09:31:44.704Z,26.42
2018-07-09T09:32:44.664Z,26.40
2018-07-09T09:33:44.624Z,26.31
2018-07-09T09:34:44.582Z,26.44
2018-07-09T09:35:44.542Z,26.39
2018-07-09T09:36:44.503Z,26.40
2018-07-09T09:37:44.458Z,26.37
2018-07-09T09:38:44.420Z,26.46
2018-07-09T09:39:44.375Z,26.36
2018-07-09T09:40:44.329Z,26.44
2018-07-09T09:41:44.297Z,26.40
2018-07-09T09:42:44.259Z,26.36
2018-07-09T09:43:44.218Z,26.39
2018-07-09T09:44:44.177Z,26.37
2018-07-09T09:45:44.126Z,26.49
2018-07-09T09:46:44.095Z,26.39
2018-07-09T09:47:44.052Z,26.43
2018-07-09T09:48:44.018Z,26.49
2018-07-09T09:49:43.978Z,26.42
2018-07-09T09:50:43.940Z,26.40
2018-07-09T09:51:43.896Z,26.36
2018-07-09T09:52:43.850Z,26.46
2018-07-09T09:53:43.808Z,26.39
2018-07-09T09:54:43.767Z,26.44
2018-07-09T09:55:43.733Z,26.37
2018-07-09T09:56:43.701Z,26.46
2018-07-09T09:57:43.656Z,26.47
2018-07-09T09:58:43.618Z,26.44
2018-07-09T09:59:43.570Z,26.43
2018-07-09T10:00:43.528Z,26.43
2018-07-09T10:01:43.483Z,26.44
2018-07-09T10:02:43.444Z,26.40
2018-07-09T10:03:43.403Z,26.52
2018-07-09T10:04:43.367Z,26.44
2018-07-09T10:05:43.322Z,26.43
2018-07-09T10:06:43.284Z,26.50
2018-07-09T10:07:43.233Z,26.49
2018-07-09T10:08:43.264Z,26.44
2018-07-09T10:09:43.153Z,26.44
2018-07-09T10:10:43.137Z,26.52
2018-07-09T10:11:43.089Z,26.49
2018-07-09T10:12:43.044Z,26.50
2018-07-09T10:13:43.015Z,26.46
2018-07-09T10:14:42.965Z,26.47
2018-07-09T10:15:42.917Z,26.57
2018-07-09T10:16:42.890Z,26.46
2018-07-09T10:17:42.848Z,26.46
2018-07-09T10:18:42.799Z,26.50
2018-07-09T10:19:42.757Z,26.54
2018-07-09T10:20:42.706Z,26.50
2018-07-09T10:21:42.664Z,26.54
2018-07-09T10:22:42.635Z,26.55
2018-07-09T10:23:42.601Z,26.57
2018-07-09T10:24:42.549Z,26.49
2018-07-09T10:25:42.511Z,26.55
2018-07-09T10:26:42.480Z,26.46
2018-07-09T10:27:42.425Z,26.50
2018-07-09T10:28:42.393Z,26.47
2018-07-09T10:29:42.345Z,26.46
2018-07-09T10:30:42.306Z,26.54
2018-07-09T10:31:42.273Z,26.44
2018-07-09T10:32:42.231Z,26.46
2018-07-09T10:33:42.186Z,26.44
2018-07-09T10:34:42.172Z,26.54
2018-07-09T10:35:42.104Z,26.49
2018-07-09T10:36:42.070Z,26.42
2018-07-09T10:37:42.024Z,26.49
2018-07-09T10:38:41.982Z,26.52
2018-07-09T10:39:41.951Z,26.43
2018-07-09T10:40:41.902Z,26.54
2018-07-09T10:41:41.862Z,26.50
2018-07-09T10:42:41.824Z,26.49
2018-07-09T10:43:41.776Z,26.50
2018-07-09T10:44:41.738Z,26.52
2018-07-09T10:45:41.700Z,26.55
2018-07-09T10:46:41.660Z,26.54
2018-07-09T10:47:41.621Z,26.55
2018-07-09T10:48:41.585Z,26.47
2018-07-09T10:49:41.537Z,26.49
2018-07-09T10:50:41.495Z,26.54
2018-07-09T10:51:41.456Z,26.54
2018-07-09T10:52:41.411Z,26.50
2018-07-09T10:53:41.373Z,26.47
2018-07-09T10:54:41.333Z,26.52
2018-07-09T10:55:41.298Z,26.47
2018-07-09T10:56:41.254Z,26.49
2018-07-09T10:57:41.215Z,26.50
2018-07-09T10:58:41.173Z,26.50
2018-07-09T10:59:41.132Z,26.55
2018-07-09T11:00:41.132Z,26.54
2018-07-09T11:01:41.052Z,26.46
2018-07-09T11:02:41.033Z,26.50
2018-07-09T11:03:40.968Z,26.55
2018-07-09T11:04:40.927Z,26.57
2018-07-09T11:05:40.888Z,26.50
2018-07-09T11:06:40.850Z,26.50
2018-07-09T11:07:40.809Z,26.52
2018-07-09T11:08:40.757Z,26.50
2018-07-09T11:09:40.737Z,26.47
2018-07-09T11:10:40.692Z,26.49
2018-07-09T11:11:40.644Z,26.54
2018-07-09T11:12:40.603Z,26.50
2018-07-09T11:13:40.561Z,26.55
2018-07-09T11:14:40.522Z,26.50
2018-07-09T11:15:40.483Z,26.50
2018-07-09T11:16:40.441Z,26.52
2018-07-09T11:17:40.393Z,26.47
2018-07-09T11:18:40.361Z,26.50
2018-07-09T11:19:40.320Z,26.57
2018-07-09T11:20:40.282Z,26.46
2018-07-09T11:21:40.257Z,26.50
2018-07-09T11:22:40.200Z,26.54
2018-07-09T11:23:40.163Z,26.50
2018-07-09T11:24:40.127Z,26.50
2018-07-09T11:25:40.077Z,26.54
2018-07-09T11:26:40.036Z,26.50
2018-07-09T11:27:40.052Z,26.55
2018-07-09T11:28:39.945Z,26.50
2018-07-09T11:29:39.915Z,26.52
2018-07-09T11:30:39.876Z,26.46
2018-07-09T11:31:39.831Z,26.49
2018-07-09T11:32:39.793Z,26.49
2018-07-09T11:33:39.751Z,26.46
2018-07-09T11:34:39.707Z,26.52
2018-07-09T11:35:39.669Z,26.57
2018-07-09T11:36:39.632Z,26.44
2018-07-09T11:37:39.608Z,26.55
2018-07-09T11:38:39.548Z,26.46
2018-07-09T11:39:39.514Z,26.52
2018-07-09T11:40:39.471Z,26.52
2018-07-09T11:42:39.383Z,26.43
2018-07-09T11:43:39.345Z,26.39
2018-07-09T11:44:39.403Z,26.47
2018-07-09T11:45:39.266Z,26.50
2018-07-09T11:46:39.224Z,26.44
2018-07-09T11:47:39.179Z,26.44
2018-07-09T11:48:39.153Z,26.36
2018-07-09T11:49:39.102Z,26.37
2018-07-09T11:50:39.071Z,26.42
2018-07-09T11:51:39.022Z,26.44
2018-07-09T11:52:38.987Z,26.39
2018-07-09T11:53:38.938Z,26.40
2018-07-09T11:54:38.899Z,26.40
2018-07-09T11:55:38.906Z,26.42
2018-07-09T11:56:38.829Z,26.42
2018-07-09T11:57:38.774Z,26.37
2018-07-09T11:58:38.793Z,26.40
2018-07-09T11:59:38.697Z,26.40
2018-07-09T12:00:38.655Z,26.40
2018-07-09T12:01:38.619Z,26.40
2018-07-09T12:02:38.572Z,26.39
2018-07-09T12:03:38.534Z,26.40
2018-07-09T12:04:38.495Z,26.39
2018-07-09T12:05:38.454Z,26.44
2018-07-09T12:06:38.412Z,26.40
2018-07-09T12:07:38.370Z,26.46
2018-07-09T12:08:38.325Z,26.40
2018-07-09T12:09:38.280Z,26.52
2018-07-09T12:10:38.251Z,26.50
2018-07-09T12:11:38.203Z,26.54
2018-07-09T12:12:38.181Z,26.49
2018-07-09T12:13:38.133Z,26.49
2018-07-09T12:14:38.083Z,26.50
2018-07-09T12:15:38.042Z,26.54
2018-07-09T12:16:38.007Z,26.47
2018-07-09T12:17:37.971Z,26.52
2018-07-09T12:18:37.934Z,26.52
2018-07-09T12:19:37.901Z,26.49
2018-07-09T12:20:37.843Z,26.52
2018-07-09T12:21:37.819Z,26.54
2018-07-09T12:22:37.763Z,26.47
2018-07-09T12:23:37.722Z,26.52
2018-07-09T12:24:37.696Z,26.52
2018-07-09T12:25:37.642Z,26.54
2018-07-09T12:26:37.604Z,26.44
2018-07-09T12:27:37.556Z,26.40
2018-07-09T12:28:37.518Z,26.49
2018-07-09T12:29:37.479Z,26.43
2018-07-09T12:30:37.437Z,26.46
2018-07-09T12:31:37.396Z,26.44
2018-07-09T12:32:37.359Z,26.44
2018-07-09T12:33:37.315Z,26.46
2018-07-09T12:34:37.270Z,26.40
2018-07-09T12:35:37.234Z,26.40
2018-07-09T12:36:37.190Z,26.42
2018-07-09T12:37:37.153Z,26.44
2018-07-09T12:38:37.108Z,26.37
2018-07-09T12:39:37.074Z,26.40
2018-07-09T12:40:37.032Z,26.40
2018-07-09T12:41:36.990Z,26.39
2018-07-09T12:42:36.948Z,26.43
2018-07-09T12:43:36.910Z,26.37
2018-07-09T12:44:36.869Z,26.40
2018-07-09T12:45:36.831Z,26.42
2018-07-09T12:46:36.789Z,26.40
2018-07-09T12:47:36.747Z,26.43
2018-07-09T12:48:36.712Z,26.42
2018-07-09T12:49:36.668Z,26.40
2018-07-09T12:50:36.622Z,26.42
2018-07-09T12:51:36.584Z,26.39
2018-07-09T12:52:36.542Z,26.36
2018-07-09T12:53:36.509Z,26.42
2018-07-09T12:54:36.464Z,26.39